sensor_id;sensor_type;location;lat;lon;timestamp;P1;durP1;ratioP1;P2;durP2;ratioP2
23474;SDS011;11910;52.086;21.066;2024-03-22T00:01:50;63.47;;;42.63;;
23474;SDS011;11910;52.086;21.066;2024-03-22T00:04:17;62.85;;;44.67;;
23474;SDS011;11910;52.086;21.066;2024-03-22T00:06:43;61.30;;;41.33;;
23474;SDS011;11910;52.086;21.066;2024-03-22T00:09:10;65.43;;;43.45;;
23474;SDS011;11910;52.086;21.066;2024-03-22T00:11:37;65.22;;;44.35;;
23474;SDS011;11910;52.086;21.066;2024-03-22T00:14:04;66.25;;;44.03;;
23474;SDS011;11910;52.086;21.066;2024-03-22T00:16:29;66.13;;;44.78;;
23474;SDS011;11910;52.086;21.066;2024-03-22T00:18:55;73.38;;;46.72;;
23474;SDS011;11910;52.086;21.066;2024-03-22T00:21:21;72.32;;;46.65;;
23474;SDS011;11910;52.086;21.066;2024-03-22T00:23:47;80.63;;;48.65;;
23474;SDS011;11910;52.086;21.066;2024-03-22T00:26:13;64.20;;;44.35;;
23474;SDS011;11910;52.086;21.066;2024-03-22T00:28:39;77.60;;;48.50;;
23474;SDS011;11910;52.086;21.066;2024-03-22T00:31:05;81.28;;;49.10;;
23474;SDS011;11910;52.086;21.066;2024-03-22T00:33:30;79.03;;;49.10;;
23474;SDS011;11910;52.086;21.066;2024-03-22T00:35:56;73.90;;;48.97;;
23474;SDS011;11910;52.086;21.066;2024-03-22T00:38:22;79.57;;;48.72;;
23474;SDS011;11910;52.086;21.066;2024-03-22T00:40:48;85.38;;;50.28;;
23474;SDS011;11910;52.086;21.066;2024-03-22T00:43:14;80.57;;;50.08;;
23474;SDS011;11910;52.086;21.066;2024-03-22T00:45:39;85.38;;;52.22;;
23474;SDS011;11910;52.086;21.066;2024-03-22T00:48:06;84.00;;;49.97;;
23474;SDS011;11910;52.086;21.066;2024-03-22T00:50:32;85.43;;;52.63;;
23474;SDS011;11910;52.086;21.066;2024-03-22T00:52:58;94.32;;;53.53;;
23474;SDS011;11910;52.086;21.066;2024-03-22T00:55:24;95.00;;;52.83;;
23474;SDS011;11910;52.086;21.066;2024-03-22T00:57:50;83.82;;;51.40;;
23474;SDS011;11910;52.086;21.066;2024-03-22T01:00:16;83.22;;;52.92;;
23474;SDS011;11910;52.086;21.066;2024-03-22T01:02:43;88.18;;;53.67;;
23474;SDS011;11910;52.086;21.066;2024-03-22T01:05:08;95.93;;;52.38;;
23474;SDS011;11910;52.086;21.066;2024-03-22T01:07:35;97.05;;;59.42;;
23474;SDS011;11910;52.086;21.066;2024-03-22T01:10:01;93.45;;;54.85;;
23474;SDS011;11910;52.086;21.066;2024-03-22T01:12:27;89.20;;;54.63;;
23474;SDS011;11910;52.086;21.066;2024-03-22T01:14:53;101.45;;;57.63;;
23474;SDS011;11910;52.086;21.066;2024-03-22T01:17:19;116.40;;;62.35;;
23474;SDS011;11910;52.086;21.066;2024-03-22T01:19:45;101.80;;;58.67;;
23474;SDS011;11910;52.086;21.066;2024-03-22T01:22:11;108.03;;;58.25;;
23474;SDS011;11910;52.086;21.066;2024-03-22T01:24:36;99.68;;;59.20;;
23474;SDS011;11910;52.086;21.066;2024-03-22T01:27:02;109.60;;;62.13;;
23474;SDS011;11910;52.086;21.066;2024-03-22T01:29:28;113.97;;;62.28;;
23474;SDS011;11910;52.086;21.066;2024-03-22T01:31:56;102.68;;;58.97;;
23474;SDS011;11910;52.086;21.066;2024-03-22T01:34:25;109.75;;;60.63;;
23474;SDS011;11910;52.086;21.066;2024-03-22T01:36:51;106.88;;;61.03;;
23474;SDS011;11910;52.086;21.066;2024-03-22T01:39:18;108.43;;;61.33;;
23474;SDS011;11910;52.086;21.066;2024-03-22T01:41:46;100.97;;;58.92;;
23474;SDS011;11910;52.086;21.066;2024-03-22T01:44:12;106.45;;;61.55;;
23474;SDS011;11910;52.086;21.066;2024-03-22T01:46:39;95.47;;;58.15;;
23474;SDS011;11910;52.086;21.066;2024-03-22T01:49:05;104.00;;;60.20;;
23474;SDS011;11910;52.086;21.066;2024-03-22T01:51:33;107.80;;;60.85;;
23474;SDS011;11910;52.086;21.066;2024-03-22T01:53:59;98.80;;;59.72;;
23474;SDS011;11910;52.086;21.066;2024-03-22T01:56:27;94.57;;;56.08;;
23474;SDS011;11910;52.086;21.066;2024-03-22T01:58:53;94.72;;;58.78;;
23474;SDS011;11910;52.086;21.066;2024-03-22T02:01:21;107.20;;;59.35;;
23474;SDS011;11910;52.086;21.066;2024-03-22T02:03:49;112.25;;;63.88;;
23474;SDS011;11910;52.086;21.066;2024-03-22T02:06:14;124.45;;;65.72;;
23474;SDS011;11910;52.086;21.066;2024-03-22T02:08:40;128.93;;;65.82;;
23474;SDS011;11910;52.086;21.066;2024-03-22T02:11:07;129.27;;;67.03;;
23474;SDS011;11910;52.086;21.066;2024-03-22T02:13:34;129.85;;;67.80;;
23474;SDS011;11910;52.086;21.066;2024-03-22T02:16:02;123.53;;;66.43;;
23474;SDS011;11910;52.086;21.066;2024-03-22T02:18:28;138.93;;;70.80;;
23474;SDS011;11910;52.086;21.066;2024-03-22T02:20:56;149.57;;;72.45;;
23474;SDS011;11910;52.086;21.066;2024-03-22T02:23:43;149.27;;;72.78;;
23474;SDS011;11910;52.086;21.066;2024-03-22T02:26:07;145.00;;;72.53;;
23474;SDS011;11910;52.086;21.066;2024-03-22T02:28:33;140.63;;;72.55;;
23474;SDS011;11910;52.086;21.066;2024-03-22T02:31:01;144.68;;;73.47;;
23474;SDS011;11910;52.086;21.066;2024-03-22T02:33:30;138.43;;;70.53;;
23474;SDS011;11910;52.086;21.066;2024-03-22T02:35:56;144.10;;;74.63;;
23474;SDS011;11910;52.086;21.066;2024-03-22T02:38:22;143.07;;;71.65;;
23474;SDS011;11910;52.086;21.066;2024-03-22T02:40:50;168.55;;;75.55;;
23474;SDS011;11910;52.086;21.066;2024-03-22T02:43:16;159.00;;;76.65;;
23474;SDS011;11910;52.086;21.066;2024-03-22T02:45:44;138.68;;;71.07;;
23474;SDS011;11910;52.086;21.066;2024-03-22T02:48:10;162.07;;;77.68;;
23474;SDS011;11910;52.086;21.066;2024-03-22T02:50:36;155.57;;;74.80;;
23474;SDS011;11910;52.086;21.066;2024-03-22T02:53:02;168.65;;;79.80;;
23474;SDS011;11910;52.086;21.066;2024-03-22T02:55:28;198.23;;;84.28;;
23474;SDS011;11910;52.086;21.066;2024-03-22T02:57:56;234.70;;;87.55;;
23474;SDS011;11910;52.086;21.066;2024-03-22T03:00:22;279.60;;;89.93;;
23474;SDS011;11910;52.086;21.066;2024-03-22T03:02:48;261.08;;;89.50;;
23474;SDS011;11910;52.086;21.066;2024-03-22T03:05:14;245.07;;;90.40;;
23474;SDS011;11910;52.086;21.066;2024-03-22T03:07:40;231.25;;;83.35;;
23474;SDS011;11910;52.086;21.066;2024-03-22T03:10:06;282.10;;;93.13;;
23474;SDS011;11910;52.086;21.066;2024-03-22T03:12:32;282.25;;;89.13;;
23474;SDS011;11910;52.086;21.066;2024-03-22T03:14:58;255.75;;;88.03;;
23474;SDS011;11910;52.086;21.066;2024-03-22T03:17:24;261.05;;;91.53;;
23474;SDS011;11910;52.086;21.066;2024-03-22T03:19:49;283.88;;;91.95;;
23474;SDS011;11910;52.086;21.066;2024-03-22T03:22:15;231.45;;;87.18;;
23474;SDS011;11910;52.086;21.066;2024-03-22T03:24:41;276.13;;;93.15;;
23474;SDS011;11910;52.086;21.066;2024-03-22T03:27:06;229.98;;;82.57;;
23474;SDS011;11910;52.086;21.066;2024-03-22T03:29:32;225.35;;;86.85;;
23474;SDS011;11910;52.086;21.066;2024-03-22T03:31:58;209.60;;;82.30;;
23474;SDS011;11910;52.086;21.066;2024-03-22T03:34:24;192.07;;;77.40;;
23474;SDS011;11910;52.086;21.066;2024-03-22T03:36:49;231.35;;;84.57;;
23474;SDS011;11910;52.086;21.066;2024-03-22T03:39:15;181.43;;;75.88;;
23474;SDS011;11910;52.086;21.066;2024-03-22T03:41:41;204.25;;;77.57;;
23474;SDS011;11910;52.086;21.066;2024-03-22T03:44:06;185.57;;;75.38;;
23474;SDS011;11910;52.086;21.066;2024-03-22T03:46:32;225.57;;;79.25;;
23474;SDS011;11910;52.086;21.066;2024-03-22T03:48:58;156.80;;;70.20;;
23474;SDS011;11910;52.086;21.066;2024-03-22T03:51:24;152.27;;;70.10;;
23474;SDS011;11910;52.086;21.066;2024-03-22T03:53:50;170.02;;;71.18;;
23474;SDS011;11910;52.086;21.066;2024-03-22T03:56:15;182.20;;;73.13;;
23474;SDS011;11910;52.086;21.066;2024-03-22T03:58:41;190.38;;;71.90;;
23474;SDS011;11910;52.086;21.066;2024-03-22T04:01:07;140.35;;;62.58;;
23474;SDS011;11910;52.086;21.066;2024-03-22T04:03:33;167.73;;;67.95;;
23474;SDS011;11910;52.086;21.066;2024-03-22T04:06:00;117.13;;;60.38;;
23474;SDS011;11910;52.086;21.066;2024-03-22T04:08:26;105.55;;;56.80;;
23474;SDS011;11910;52.086;21.066;2024-03-22T04:10:53;117.10;;;58.45;;
23474;SDS011;11910;52.086;21.066;2024-03-22T04:13:21;89.22;;;50.78;;
23474;SDS011;11910;52.086;21.066;2024-03-22T04:15:47;113.97;;;58.03;;
23474;SDS011;11910;52.086;21.066;2024-03-22T04:18:13;119.35;;;58.28;;
23474;SDS011;11910;52.086;21.066;2024-03-22T04:20:39;90.75;;;51.88;;
23474;SDS011;11910;52.086;21.066;2024-03-22T04:23:05;93.35;;;50.53;;
23474;SDS011;11910;52.086;21.066;2024-03-22T04:25:31;113.47;;;55.10;;
23474;SDS011;11910;52.086;21.066;2024-03-22T04:27:56;93.80;;;52.13;;
23474;SDS011;11910;52.086;21.066;2024-03-22T04:30:22;96.50;;;50.55;;
23474;SDS011;11910;52.086;21.066;2024-03-22T04:32:48;97.90;;;50.83;;
23474;SDS011;11910;52.086;21.066;2024-03-22T04:35:14;82.95;;;47.85;;
23474;SDS011;11910;52.086;21.066;2024-03-22T04:37:40;88.45;;;48.10;;
23474;SDS011;11910;52.086;21.066;2024-03-22T04:40:06;88.15;;;46.33;;
23474;SDS011;11910;52.086;21.066;2024-03-22T04:42:32;81.95;;;43.83;;
23474;SDS011;11910;52.086;21.066;2024-03-22T04:45:07;87.55;;;43.85;;
23474;SDS011;11910;52.086;21.066;2024-03-22T04:47:32;94.22;;;44.58;;
23474;SDS011;11910;52.086;21.066;2024-03-22T04:50:02;87.82;;;45.22;;
23474;SDS011;11910;52.086;21.066;2024-03-22T04:52:28;94.75;;;47.03;;
23474;SDS011;11910;52.086;21.066;2024-03-22T04:54:54;89.63;;;45.20;;
23474;SDS011;11910;52.086;21.066;2024-03-22T04:57:19;90.65;;;46.15;;
23474;SDS011;11910;52.086;21.066;2024-03-22T04:59:45;87.15;;;44.72;;
23474;SDS011;11910;52.086;21.066;2024-03-22T05:02:11;93.38;;;43.85;;
23474;SDS011;11910;52.086;21.066;2024-03-22T05:04:37;91.63;;;46.08;;
23474;SDS011;11910;52.086;21.066;2024-03-22T05:07:02;85.60;;;42.85;;
23474;SDS011;11910;52.086;21.066;2024-03-22T05:09:28;89.40;;;42.88;;
23474;SDS011;11910;52.086;21.066;2024-03-22T05:11:55;98.13;;;43.92;;
23474;SDS011;11910;52.086;21.066;2024-03-22T05:14:24;73.68;;;40.10;;
23474;SDS011;11910;52.086;21.066;2024-03-22T05:16:49;82.75;;;43.05;;
23474;SDS011;11910;52.086;21.066;2024-03-22T05:19:15;81.70;;;41.67;;
23474;SDS011;11910;52.086;21.066;2024-03-22T05:21:41;89.20;;;41.63;;
23474;SDS011;11910;52.086;21.066;2024-03-22T05:24:06;75.85;;;39.30;;
23474;SDS011;11910;52.086;21.066;2024-03-22T05:26:32;80.57;;;41.22;;
23474;SDS011;11910;52.086;21.066;2024-03-22T05:29:01;81.00;;;40.92;;
23474;SDS011;11910;52.086;21.066;2024-03-22T05:31:30;75.68;;;39.92;;
23474;SDS011;11910;52.086;21.066;2024-03-22T05:33:56;76.68;;;41.22;;
23474;SDS011;11910;52.086;21.066;2024-03-22T05:36:22;100.47;;;46.75;;
23474;SDS011;11910;52.086;21.066;2024-03-22T05:38:47;98.97;;;45.05;;
23474;SDS011;11910;52.086;21.066;2024-03-22T05:41:13;96.43;;;45.00;;
23474;SDS011;11910;52.086;21.066;2024-03-22T05:43:39;92.20;;;46.55;;
23474;SDS011;11910;52.086;21.066;2024-03-22T05:46:05;90.57;;;45.63;;
23474;SDS011;11910;52.086;21.066;2024-03-22T05:48:33;97.10;;;47.67;;
23474;SDS011;11910;52.086;21.066;2024-03-22T05:50:59;96.28;;;46.78;;
23474;SDS011;11910;52.086;21.066;2024-03-22T05:53:25;103.82;;;47.60;;
23474;SDS011;11910;52.086;21.066;2024-03-22T05:55:51;82.57;;;45.80;;
23474;SDS011;11910;52.086;21.066;2024-03-22T05:58:16;87.05;;;46.17;;
23474;SDS011;11910;52.086;21.066;2024-03-22T06:00:42;103.20;;;50.33;;
23474;SDS011;11910;52.086;21.066;2024-03-22T06:03:08;88.35;;;45.75;;
23474;SDS011;11910;52.086;21.066;2024-03-22T06:05:34;102.13;;;49.35;;
23474;SDS011;11910;52.086;21.066;2024-03-22T06:08:03;98.45;;;50.20;;
23474;SDS011;11910;52.086;21.066;2024-03-22T06:10:29;90.32;;;46.60;;
23474;SDS011;11910;52.086;21.066;2024-03-22T06:12:54;91.75;;;47.33;;
23474;SDS011;11910;52.086;21.066;2024-03-22T06:15:21;117.78;;;49.92;;
23474;SDS011;11910;52.086;21.066;2024-03-22T06:17:47;101.88;;;48.28;;
23474;SDS011;11910;52.086;21.066;2024-03-22T06:20:13;101.10;;;48.10;;
23474;SDS011;11910;52.086;21.066;2024-03-22T06:22:39;89.80;;;46.75;;
23474;SDS011;11910;52.086;21.066;2024-03-22T06:25:04;79.90;;;44.58;;
23474;SDS011;11910;52.086;21.066;2024-03-22T06:27:30;82.85;;;45.38;;
23474;SDS011;11910;52.086;21.066;2024-03-22T06:29:56;88.68;;;45.92;;
23474;SDS011;11910;52.086;21.066;2024-03-22T06:32:22;85.30;;;45.45;;
23474;SDS011;11910;52.086;21.066;2024-03-22T06:34:47;72.70;;;43.30;;
23474;SDS011;11910;52.086;21.066;2024-03-22T06:37:13;73.95;;;43.08;;
23474;SDS011;11910;52.086;21.066;2024-03-22T06:39:39;75.20;;;42.90;;
23474;SDS011;11910;52.086;21.066;2024-03-22T06:42:05;85.15;;;44.85;;
23474;SDS011;11910;52.086;21.066;2024-03-22T06:44:31;68.32;;;41.08;;
23474;SDS011;11910;52.086;21.066;2024-03-22T06:46:56;75.88;;;41.03;;
23474;SDS011;11910;52.086;21.066;2024-03-22T06:49:22;72.07;;;39.72;;
23474;SDS011;11910;52.086;21.066;2024-03-22T06:51:48;74.65;;;40.63;;
23474;SDS011;11910;52.086;21.066;2024-03-22T06:54:14;59.03;;;35.83;;
23474;SDS011;11910;52.086;21.066;2024-03-22T06:56:39;57.90;;;37.20;;
23474;SDS011;11910;52.086;21.066;2024-03-22T06:59:06;63.20;;;38.13;;
23474;SDS011;11910;52.086;21.066;2024-03-22T07:01:31;60.20;;;36.25;;
23474;SDS011;11910;52.086;21.066;2024-03-22T07:03:57;58.67;;;36.03;;
23474;SDS011;11910;52.086;21.066;2024-03-22T07:06:23;54.13;;;34.28;;
23474;SDS011;11910;52.086;21.066;2024-03-22T07:08:49;56.05;;;34.72;;
23474;SDS011;11910;52.086;21.066;2024-03-22T07:11:14;53.38;;;34.10;;
23474;SDS011;11910;52.086;21.066;2024-03-22T07:13:40;54.45;;;34.83;;
23474;SDS011;11910;52.086;21.066;2024-03-22T07:16:06;56.25;;;35.72;;
23474;SDS011;11910;52.086;21.066;2024-03-22T07:18:31;54.85;;;35.08;;
23474;SDS011;11910;52.086;21.066;2024-03-22T07:20:57;56.42;;;35.92;;
23474;SDS011;11910;52.086;21.066;2024-03-22T07:23:26;55.38;;;34.60;;
23474;SDS011;11910;52.086;21.066;2024-03-22T07:25:52;51.40;;;33.70;;
23474;SDS011;11910;52.086;21.066;2024-03-22T07:28:18;50.92;;;32.47;;
23474;SDS011;11910;52.086;21.066;2024-03-22T07:30:44;61.67;;;36.90;;
23474;SDS011;11910;52.086;21.066;2024-03-22T07:33:12;62.45;;;38.40;;
23474;SDS011;11910;52.086;21.066;2024-03-22T07:35:41;61.83;;;39.33;;
23474;SDS011;11910;52.086;21.066;2024-03-22T07:38:07;68.10;;;40.90;;
23474;SDS011;11910;52.086;21.066;2024-03-22T07:40:32;66.18;;;41.05;;
23474;SDS011;11910;52.086;21.066;2024-03-22T07:42:58;65.80;;;40.08;;
23474;SDS011;11910;52.086;21.066;2024-03-22T07:45:24;60.70;;;37.50;;
23474;SDS011;11910;52.086;21.066;2024-03-22T07:47:50;58.65;;;36.22;;
23474;SDS011;11910;52.086;21.066;2024-03-22T07:50:16;63.08;;;39.15;;
23474;SDS011;11910;52.086;21.066;2024-03-22T07:52:42;60.53;;;37.22;;
23474;SDS011;11910;52.086;21.066;2024-03-22T07:55:08;60.50;;;38.38;;
23474;SDS011;11910;52.086;21.066;2024-03-22T07:57:33;57.40;;;36.75;;
23474;SDS011;11910;52.086;21.066;2024-03-22T07:59:59;56.65;;;36.50;;
23474;SDS011;11910;52.086;21.066;2024-03-22T08:02:25;55.55;;;35.63;;
23474;SDS011;11910;52.086;21.066;2024-03-22T08:04:51;53.28;;;36.33;;
23474;SDS011;11910;52.086;21.066;2024-03-22T08:07:19;56.10;;;36.58;;
23474;SDS011;11910;52.086;21.066;2024-03-22T08:09:44;48.83;;;33.55;;
23474;SDS011;11910;52.086;21.066;2024-03-22T08:12:13;54.30;;;34.85;;
23474;SDS011;11910;52.086;21.066;2024-03-22T08:14:39;55.42;;;34.88;;
23474;SDS011;11910;52.086;21.066;2024-03-22T08:17:05;51.40;;;32.95;;
23474;SDS011;11910;52.086;21.066;2024-03-22T08:19:32;46.80;;;31.67;;
23474;SDS011;11910;52.086;21.066;2024-03-22T08:21:58;44.28;;;29.83;;
23474;SDS011;11910;52.086;21.066;2024-03-22T08:24:24;42.97;;;30.20;;
23474;SDS011;11910;52.086;21.066;2024-03-22T08:26:50;43.67;;;29.33;;
23474;SDS011;11910;52.086;21.066;2024-03-22T08:29:15;43.13;;;29.58;;
23474;SDS011;11910;52.086;21.066;2024-03-22T08:31:41;42.13;;;29.63;;
23474;SDS011;11910;52.086;21.066;2024-03-22T08:34:07;45.08;;;30.52;;
23474;SDS011;11910;52.086;21.066;2024-03-22T08:36:33;44.20;;;29.98;;
23474;SDS011;11910;52.086;21.066;2024-03-22T08:38:59;42.55;;;28.77;;
23474;SDS011;11910;52.086;21.066;2024-03-22T08:41:25;41.55;;;29.08;;
23474;SDS011;11910;52.086;21.066;2024-03-22T08:43:54;41.60;;;26.35;;
23474;SDS011;11910;52.086;21.066;2024-03-22T08:46:20;40.67;;;27.27;;
23474;SDS011;11910;52.086;21.066;2024-03-22T08:48:46;37.22;;;25.95;;
23474;SDS011;11910;52.086;21.066;2024-03-22T08:51:13;34.97;;;24.20;;
23474;SDS011;11910;52.086;21.066;2024-03-22T08:53:38;34.55;;;22.92;;
23474;SDS011;11910;52.086;21.066;2024-03-22T08:56:04;32.78;;;22.15;;
23474;SDS011;11910;52.086;21.066;2024-03-22T08:58:30;30.88;;;21.13;;
23474;SDS011;11910;52.086;21.066;2024-03-22T09:00:55;28.15;;;19.98;;
23474;SDS011;11910;52.086;21.066;2024-03-22T09:03:21;31.88;;;22.33;;
23474;SDS011;11910;52.086;21.066;2024-03-22T09:05:48;33.55;;;22.10;;
23474;SDS011;11910;52.086;21.066;2024-03-22T09:08:18;30.73;;;20.60;;
23474;SDS011;11910;52.086;21.066;2024-03-22T09:10:44;31.15;;;20.25;;
23474;SDS011;11910;52.086;21.066;2024-03-22T09:13:10;28.73;;;20.35;;
23474;SDS011;11910;52.086;21.066;2024-03-22T09:15:37;27.95;;;19.05;;
23474;SDS011;11910;52.086;21.066;2024-03-22T09:18:04;26.05;;;18.98;;
23474;SDS011;11910;52.086;21.066;2024-03-22T09:20:30;31.17;;;20.23;;
23474;SDS011;11910;52.086;21.066;2024-03-22T09:22:55;31.38;;;21.00;;
23474;SDS011;11910;52.086;21.066;2024-03-22T09:25:22;29.65;;;21.17;;
23474;SDS011;11910;52.086;21.066;2024-03-22T09:27:50;30.83;;;21.58;;
23474;SDS011;11910;52.086;21.066;2024-03-22T09:30:16;31.65;;;22.05;;
23474;SDS011;11910;52.086;21.066;2024-03-22T09:32:42;34.08;;;23.00;;
23474;SDS011;11910;52.086;21.066;2024-03-22T09:35:08;32.95;;;24.00;;
23474;SDS011;11910;52.086;21.066;2024-03-22T09:37:34;35.25;;;24.70;;
23474;SDS011;11910;52.086;21.066;2024-03-22T09:39:59;36.97;;;25.02;;
23474;SDS011;11910;52.086;21.066;2024-03-22T09:42:26;36.47;;;25.65;;
23474;SDS011;11910;52.086;21.066;2024-03-22T09:45:00;39.20;;;27.20;;
23474;SDS011;11910;52.086;21.066;2024-03-22T09:47:27;36.22;;;26.15;;
23474;SDS011;11910;52.086;21.066;2024-03-22T09:49:53;34.00;;;24.42;;
23474;SDS011;11910;52.086;21.066;2024-03-22T09:52:21;34.95;;;25.13;;
23474;SDS011;11910;52.086;21.066;2024-03-22T09:54:47;32.97;;;23.75;;
23474;SDS011;11910;52.086;21.066;2024-03-22T09:57:14;33.17;;;24.00;;
23474;SDS011;11910;52.086;21.066;2024-03-22T09:59:43;32.97;;;23.60;;
23474;SDS011;11910;52.086;21.066;2024-03-22T10:02:10;33.70;;;24.83;;
23474;SDS011;11910;52.086;21.066;2024-03-22T10:04:40;38.30;;;26.30;;
23474;SDS011;11910;52.086;21.066;2024-03-22T10:07:06;35.47;;;26.08;;
23474;SDS011;11910;52.086;21.066;2024-03-22T10:09:35;35.63;;;25.65;;
23474;SDS011;11910;52.086;21.066;2024-03-22T10:12:02;38.85;;;24.58;;
23474;SDS011;11910;52.086;21.066;2024-03-22T10:14:29;34.17;;;23.80;;
23474;SDS011;11910;52.086;21.066;2024-03-22T10:16:56;34.22;;;24.02;;
23474;SDS011;11910;52.086;21.066;2024-03-22T10:19:22;36.22;;;25.60;;
23474;SDS011;11910;52.086;21.066;2024-03-22T10:24:27;35.83;;;24.58;;
23474;SDS011;11910;52.086;21.066;2024-03-22T10:26:53;38.78;;;25.20;;
23474;SDS011;11910;52.086;21.066;2024-03-22T10:29:19;33.60;;;24.48;;
23474;SDS011;11910;52.086;21.066;2024-03-22T10:31:47;36.97;;;25.30;;
23474;SDS011;11910;52.086;21.066;2024-03-22T10:34:13;36.17;;;25.45;;
23474;SDS011;11910;52.086;21.066;2024-03-22T10:36:40;37.03;;;25.52;;
23474;SDS011;11910;52.086;21.066;2024-03-22T10:39:06;38.22;;;26.55;;
23474;SDS011;11910;52.086;21.066;2024-03-22T10:41:34;38.25;;;26.42;;
23474;SDS011;11910;52.086;21.066;2024-03-22T10:43:59;39.88;;;26.52;;
23474;SDS011;11910;52.086;21.066;2024-03-22T10:46:29;36.35;;;25.95;;
23474;SDS011;11910;52.086;21.066;2024-03-22T10:48:55;36.78;;;26.40;;
23474;SDS011;11910;52.086;21.066;2024-03-22T10:51:23;30.75;;;23.95;;
23474;SDS011;11910;52.086;21.066;2024-03-22T10:53:51;37.72;;;25.70;;
23474;SDS011;11910;52.086;21.066;2024-03-22T10:56:19;32.15;;;24.38;;
23474;SDS011;11910;52.086;21.066;2024-03-22T10:58:48;34.25;;;25.80;;
23474;SDS011;11910;52.086;21.066;2024-03-22T11:01:24;34.95;;;25.33;;
23474;SDS011;11910;52.086;21.066;2024-03-22T11:03:51;34.28;;;24.92;;
23474;SDS011;11910;52.086;21.066;2024-03-22T11:06:19;32.38;;;24.30;;
23474;SDS011;11910;52.086;21.066;2024-03-22T11:08:51;37.20;;;24.80;;
23474;SDS011;11910;52.086;21.066;2024-03-22T11:11:17;38.47;;;24.98;;
23474;SDS011;11910;52.086;21.066;2024-03-22T11:13:46;37.20;;;24.05;;
23474;SDS011;11910;52.086;21.066;2024-03-22T11:16:16;32.17;;;24.05;;
23474;SDS011;11910;52.086;21.066;2024-03-22T11:18:42;32.53;;;24.17;;
23474;SDS011;11910;52.086;21.066;2024-03-22T11:21:07;31.70;;;24.15;;
23474;SDS011;11910;52.086;21.066;2024-03-22T11:23:34;32.67;;;23.67;;
23474;SDS011;11910;52.086;21.066;2024-03-22T11:26:02;34.78;;;23.30;;
23474;SDS011;11910;52.086;21.066;2024-03-22T11:28:28;29.50;;;21.88;;
23474;SDS011;11910;52.086;21.066;2024-03-22T11:30:54;29.13;;;22.80;;
23474;SDS011;11910;52.086;21.066;2024-03-22T11:33:20;29.17;;;22.15;;
23474;SDS011;11910;52.086;21.066;2024-03-22T11:35:46;29.20;;;22.05;;
23474;SDS011;11910;52.086;21.066;2024-03-22T11:38:11;26.60;;;20.52;;
23474;SDS011;11910;52.086;21.066;2024-03-22T11:40:37;26.35;;;19.23;;
23474;SDS011;11910;52.086;21.066;2024-03-22T11:43:03;27.25;;;18.65;;
23474;SDS011;11910;52.086;21.066;2024-03-22T11:45:30;21.20;;;16.83;;
23474;SDS011;11910;52.086;21.066;2024-03-22T11:48:01;21.25;;;16.35;;
23474;SDS011;11910;52.086;21.066;2024-03-22T11:50:28;24.55;;;17.00;;
23474;SDS011;11910;52.086;21.066;2024-03-22T11:52:53;21.30;;;16.05;;
23474;SDS011;11910;52.086;21.066;2024-03-22T11:55:19;23.10;;;16.63;;
23474;SDS011;11910;52.086;21.066;2024-03-22T11:57:48;22.30;;;15.60;;
23474;SDS011;11910;52.086;21.066;2024-03-22T12:00:14;21.52;;;14.63;;
23474;SDS011;11910;52.086;21.066;2024-03-22T12:02:45;19.95;;;16.17;;
23474;SDS011;11910;52.086;21.066;2024-03-22T12:05:15;20.23;;;14.70;;
23474;SDS011;11910;52.086;21.066;2024-03-22T12:07:42;18.48;;;13.55;;
23474;SDS011;11910;52.086;21.066;2024-03-22T12:10:08;19.35;;;14.10;;
23474;SDS011;11910;52.086;21.066;2024-03-22T12:12:34;19.15;;;13.77;;
23474;SDS011;11910;52.086;21.066;2024-03-22T12:15:00;18.20;;;13.20;;
23474;SDS011;11910;52.086;21.066;2024-03-22T12:17:26;17.05;;;12.75;;
23474;SDS011;11910;52.086;21.066;2024-03-22T12:19:55;17.42;;;12.40;;
23474;SDS011;11910;52.086;21.066;2024-03-22T12:22:21;16.63;;;12.23;;
23474;SDS011;11910;52.086;21.066;2024-03-22T12:24:47;16.38;;;12.48;;
23474;SDS011;11910;52.086;21.066;2024-03-22T12:27:13;19.15;;;13.38;;
23474;SDS011;11910;52.086;21.066;2024-03-22T12:29:39;16.13;;;12.48;;
23474;SDS011;11910;52.086;21.066;2024-03-22T12:32:05;16.83;;;11.98;;
23474;SDS011;11910;52.086;21.066;2024-03-22T12:34:33;17.73;;;12.00;;
23474;SDS011;11910;52.086;21.066;2024-03-22T12:36:59;16.02;;;11.80;;
23474;SDS011;11910;52.086;21.066;2024-03-22T12:39:25;17.92;;;11.27;;
23474;SDS011;11910;52.086;21.066;2024-03-22T12:41:50;17.92;;;11.95;;
23474;SDS011;11910;52.086;21.066;2024-03-22T12:44:17;14.48;;;11.75;;
23474;SDS011;11910;52.086;21.066;2024-03-22T12:46:43;15.45;;;11.95;;
23474;SDS011;11910;52.086;21.066;2024-03-22T12:49:10;16.38;;;12.10;;
23474;SDS011;11910;52.086;21.066;2024-03-22T12:51:36;17.33;;;12.45;;
23474;SDS011;11910;52.086;21.066;2024-03-22T12:54:02;16.38;;;11.95;;
23474;SDS011;11910;52.086;21.066;2024-03-22T12:56:28;16.38;;;12.57;;
23474;SDS011;11910;52.086;21.066;2024-03-22T12:58:55;15.68;;;11.95;;
23474;SDS011;11910;52.086;21.066;2024-03-22T13:01:21;15.40;;;12.05;;
23474;SDS011;11910;52.086;21.066;2024-03-22T13:03:47;17.02;;;11.80;;
23474;SDS011;11910;52.086;21.066;2024-03-22T13:06:12;19.38;;;12.57;;
23474;SDS011;11910;52.086;21.066;2024-03-22T13:08:38;14.95;;;11.93;;
23474;SDS011;11910;52.086;21.066;2024-03-22T13:11:04;14.57;;;12.35;;
23474;SDS011;11910;52.086;21.066;2024-03-22T13:13:33;15.07;;;12.48;;
23474;SDS011;11910;52.086;21.066;2024-03-22T13:15:59;17.48;;;12.32;;
23474;SDS011;11910;52.086;21.066;2024-03-22T13:18:27;16.40;;;12.57;;
23474;SDS011;11910;52.086;21.066;2024-03-22T13:20:53;15.93;;;12.43;;
23474;SDS011;11910;52.086;21.066;2024-03-22T13:23:19;17.35;;;12.43;;
23474;SDS011;11910;52.086;21.066;2024-03-22T13:25:45;17.13;;;12.75;;
23474;SDS011;11910;52.086;21.066;2024-03-22T13:28:11;17.25;;;12.75;;
23474;SDS011;11910;52.086;21.066;2024-03-22T13:30:36;18.05;;;13.23;;
23474;SDS011;11910;52.086;21.066;2024-03-22T13:33:02;21.30;;;12.57;;
23474;SDS011;11910;52.086;21.066;2024-03-22T13:35:29;19.75;;;13.13;;
23474;SDS011;11910;52.086;21.066;2024-03-22T13:37:55;24.00;;;12.40;;
23474;SDS011;11910;52.086;21.066;2024-03-22T13:40:21;16.00;;;12.77;;
23474;SDS011;11910;52.086;21.066;2024-03-22T13:42:47;16.77;;;12.95;;
23474;SDS011;11910;52.086;21.066;2024-03-22T13:45:12;15.68;;;12.43;;
23474;SDS011;11910;52.086;21.066;2024-03-22T13:47:38;15.95;;;12.80;;
23474;SDS011;11910;52.086;21.066;2024-03-22T13:50:06;16.33;;;13.02;;
23474;SDS011;11910;52.086;21.066;2024-03-22T13:52:38;20.90;;;13.43;;
23474;SDS011;11910;52.086;21.066;2024-03-22T13:55:06;17.77;;;13.10;;
23474;SDS011;11910;52.086;21.066;2024-03-22T13:57:35;17.17;;;13.10;;
23474;SDS011;11910;52.086;21.066;2024-03-22T14:00:00;22.08;;;14.73;;
23474;SDS011;11910;52.086;21.066;2024-03-22T14:02:28;17.75;;;13.93;;
23474;SDS011;11910;52.086;21.066;2024-03-22T14:04:53;17.83;;;13.63;;